Time;durP1;ratioP1;P1;durP2;ratioP2;P2;SDS_P1;SDS_P2;PMS_P1;PMS_P2;Temp;Humidity;BMP_temperature;BMP_pressure;BME280_temperature;BME280_humidity;BME280_pressure;Samples;Min_cycle;Max_cycle;Signal;HPM_P1;HPM_P2
2022/05/09 00:03:11;;;;;;;3.50;2.40;;;;;;;9.58;52.05;100481.38;426743;1284;143215;-50
2022/05/09 00:13:17;;;;;;;3.10;2.20;;;;;;;9.43;52.16;100488.33;426943;1286;141319;-49
2022/05/09 00:23:23;;;;;;;3.40;2.60;;;;;;;9.26;52.55;100496.61;426112;1285;141704;-50
2022/05/09 00:33:29;;;;;;;5.80;2.30;;;;;;;9.08;53.04;100501.91;426497;1287;143704;-46
2022/05/09 00:43:37;;;;;;;4.60;2.30;;;;;;;8.95;53.64;100504.23;426016;1287;141063;-48
2022/05/09 00:53:43;;;;;;;5.00;2.70;;;;;;;8.77;54.24;100516.33;426876;1286;142104;-48
2022/05/09 01:03:52;;;;;;;4.90;2.20;;;;;;;8.59;54.92;100512.00;426837;1287;141737;-49
2022/05/09 01:14:04;;;;;;;15.50;4.10;;;;;;;8.45;55.28;100522.13;425966;1285;142862;-48
2022/05/09 01:24:18;;;;;;;6.60;3.10;;;;;;;8.24;55.74;100523.83;427762;1287;141719;-51
2022/05/09 01:34:23;;;;;;;5.60;3.40;;;;;;;8.04;56.34;100529.13;426869;1285;144107;-47
2022/05/09 01:44:29;;;;;;;6.30;3.20;;;;;;;7.89;56.88;100530.38;425756;1285;141800;-49
2022/05/09 01:54:36;;;;;;;4.70;2.90;;;;;;;7.73;57.62;100530.95;427050;1286;142237;-49
2022/05/09 02:04:42;;;;;;;5.70;2.70;;;;;;;7.64;58.01;100535.30;426235;1285;142221;-45
2022/05/09 02:14:49;;;;;;;5.70;3.30;;;;;;;7.50;58.45;100543.12;426689;1285;143527;-46
2022/05/09 02:24:54;;;;;;;5.20;3.30;;;;;;;7.29;58.92;100548.55;427238;1285;140956;-54
2022/05/09 02:35:00;;;;;;;4.60;3.10;;;;;;;7.20;59.64;100556.35;425849;1285;142634;-49
2022/05/09 02:45:08;;;;;;;5.40;2.80;;;;;;;7.14;60.48;100553.93;426402;1285;142033;-50
2022/05/09 02:55:14;;;;;;;4.90;3.70;;;;;;;7.11;61.03;100557.69;426368;1285;141557;-47
2022/05/09 03:05:20;;;;;;;9.80;4.10;;;;;;;7.07;61.73;100559.58;426286;1285;142238;-51
2022/05/09 03:15:26;;;;;;;4.80;3.70;;;;;;;7.07;62.22;100571.79;426395;1287;144407;-48
2022/05/09 03:25:32;;;;;;;3.90;3.30;;;;;;;7.20;62.62;100579.67;426361;1287;141810;-51
2022/05/09 03:35:39;;;;;;;7.10;3.60;;;;;;;7.38;62.80;100590.59;426871;1287;141982;-48
2022/05/09 03:45:47;;;;;;;4.60;4.00;;;;;;;7.63;62.67;100600.02;426819;1285;141668;-46
2022/05/09 03:55:53;;;;;;;8.90;4.40;;;;;;;7.92;62.48;100613.42;426363;1285;148120;-47
2022/05/09 04:05:59;;;;;;;9.80;4.60;;;;;;;8.21;61.94;100617.94;426613;1285;143050;-47
2022/05/09 04:26:32;;;;;;;4.20;3.40;;;;;;;14.45;56.67;100610.80;426286;1285;141711;-52
2022/05/09 04:36:39;;;;;;;5.30;3.00;;;;;;;15.16;50.08;100610.48;427348;1285;141946;-49
2022/05/09 04:46:45;;;;;;;8.50;3.90;;;;;;;12.30;51.62;100628.42;426278;1285;141339;-50
2022/05/09 04:56:51;;;;;;;4.60;3.40;;;;;;;14.09;51.30;100634.55;427560;1285;141073;-49
2022/05/09 05:06:57;;;;;;;4.40;3.40;;;;;;;21.07;44.02;100629.67;427125;1285;145843;-49
2022/05/09 05:17:04;;;;;;;6.10;2.60;;;;;;;25.21;36.91;100636.14;425531;1286;142022;-49
2022/05/09 05:27:10;;;;;;;4.80;3.20;;;;;;;27.22;32.48;100644.83;429146;1285;146355;-49
2022/05/09 05:37:17;;;;;;;9.30;2.80;;;;;;;29.70;29.58;100650.20;432504;1285;143042;-48
2022/05/09 05:47:23;;;;;;;3.30;2.30;;;;;;;31.05;26.38;100658.61;430559;1285;146359;-56
2022/05/09 05:57:33;;;;;;;3.20;2.20;;;;;;;31.99;24.67;100665.71;435622;1285;143180;-56
2022/05/09 06:07:39;;;;;;;3.00;2.50;;;;;;;34.31;22.86;100668.42;426407;1285;142373;-54
2022/05/09 06:17:45;;;;;;;3.90;2.70;;;;;;;37.50;21.12;100667.71;427518;1285;142241;-53
2022/05/09 06:27:51;;;;;;;2.40;2.10;;;;;;;39.21;18.90;100672.13;427527;1285;142270;-56
2022/05/09 06:38:03;;;;;;;5.40;2.20;;;;;;;40.34;17.26;100679.87;427182;1285;145047;-56
2022/05/09 06:48:08;;;;;;;;;;;;;;;41.19;16.25;100686.16;427297;1285;141669;-54
2022/05/09 06:58:17;;;;;;;2.20;2.00;;;;;;;41.95;15.49;100685.62;428124;1285;127447;-56
2022/05/09 07:08:25;;;;;;;5.90;3.20;;;;;;;43.32;14.95;100681.98;426753;1285;141370;-55
2022/05/09 07:18:31;;;;;;;3.30;1.70;;;;;;;44.01;13.86;100686.17;427601;1286;140686;-54
2022/05/09 07:28:38;;;;;;;2.60;2.00;;;;;;;43.89;13.71;100692.75;426731;1285;142873;-56
2022/05/09 07:38:44;;;;;;;4.90;2.80;;;;;;;45.16;12.61;100696.87;427521;1287;142254;-56
2022/05/09 07:48:50;;;;;;;3.90;2.60;;;;;;;42.90;13.01;100699.33;427556;1285;142333;-54
2022/05/09 07:58:56;;;;;;;3.60;1.70;;;;;;;42.65;13.11;100696.13;426902;1285;140872;-56
2022/05/09 08:09:04;;;;;;;3.30;2.40;;;;;;;38.86;13.88;100690.65;426560;1285;145510;-52
2022/05/09 08:19:11;;;;;;;2.60;2.00;;;;;;;28.99;18.97;100698.77;427849;1285;141493;-48
2022/05/09 08:29:17;;;;;;;8.90;2.80;;;;;;;25.21;22.57;100710.73;426798;1287;146536;-56
2022/05/09 08:39:26;;;;;;;2.80;2.00;;;;;;;23.04;25.08;100723.24;425885;1285;142447;-58
2022/05/09 08:49:46;;;;;;;3.80;2.10;;;;;;;22.12;26.90;100722.11;428878;1285;142360;-54
2022/05/09 08:59:58;;;;;;;5.70;2.10;;;;;;;21.15;28.21;100731.16;428432;1285;141569;-59
2022/05/09 09:10:18;;;;;;;6.70;2.30;;;;;;;20.78;29.03;100727.65;428699;1285;141717;-58
2022/05/09 09:20:29;;;;;;;30.00;5.30;;;;;;;20.21;29.75;100736.00;426482;1285;140699;-53
2022/05/09 09:30:36;;;;;;;5.00;2.20;;;;;;;20.07;30.44;100734.89;428485;1285;143144;-53
2022/05/09 09:40:42;;;;;;;3.60;2.90;;;;;;;19.87;30.36;100739.98;429804;1286;287504;-52
2022/05/09 09:51:04;;;;;;;4.20;2.20;;;;;;;19.62;30.42;100741.32;431572;1285;142141;-56
2022/05/09 10:01:14;;;;;;;4.50;2.20;;;;;;;19.52;30.26;100734.52;428290;1285;140940;-55
2022/05/09 10:11:28;;;;;;;2.00;1.80;;;;;;;19.17;30.44;100722.45;427706;1285;141585;-58
2022/05/09 10:32:06;;;;;;;4.70;1.90;;;;;;;18.92;31.18;100715.94;431279;1285;141242;-57
2022/05/09 10:42:16;;;;;;;4.60;1.90;;;;;;;18.64;31.52;100716.05;428148;1285;140978;-58
2022/05/09 10:52:34;;;;;;;4.30;1.60;;;;;;;18.45;31.52;100707.66;428920;1285;140947;-55
2022/05/09 11:02:42;;;;;;;7.00;2.10;;;;;;;18.23;31.65;100702.64;427761;1285;140685;-58
2022/05/09 11:13:06;;;;;;;11.30;3.30;;;;;;;18.11;31.13;100691.35;427320;1285;141390;-58
2022/05/09 11:23:25;;;;;;;3.30;2.20;;;;;;;18.02;31.63;100686.67;428014;1285;140786;-59
2022/05/09 11:33:52;;;;;;;4.60;1.80;;;;;;;17.80;31.87;100681.46;427041;1285;141267;-58
2022/05/09 11:44:11;;;;;;;2.90;1.70;;;;;;;17.55;31.61;100676.11;427376;1285;142783;-55
2022/05/09 11:54:21;;;;;;;6.50;2.00;;;;;;;17.52;31.59;100666.39;426955;1287;142060;-54
2022/05/09 12:04:47;;;;;;;3.00;1.20;;;;;;;17.43;31.58;100659.63;427893;1285;141343;-55
2022/05/09 12:14:53;;;;;;;3.40;1.40;;;;;;;17.41;31.07;100655.37;426522;1287;142262;-60
2022/05/09 12:24:59;;;;;;;3.90;1.20;;;;;;;17.25;30.30;100651.46;427799;1286;141927;-53
2022/05/09 12:35:08;;;;;;;2.40;1.10;;;;;;;17.23;30.12;100643.59;426843;1287;142561;-58
2022/05/09 12:45:32;;;;;;;2.00;1.60;;;;;;;17.28;30.82;100626.81;426559;1287;145206;-55
2022/05/09 12:55:56;;;;;;;1.40;1.30;;;;;;;17.40;30.86;100616.15;427136;1285;145837;-61
2022/05/09 13:06:15;;;;;;;4.60;1.70;;;;;;;17.62;30.61;100612.04;426749;1285;141509;-57
2022/05/09 13:16:29;;;;;;;7.10;1.80;;;;;;;17.70;30.82;100596.71;427252;1285;142043;-57
2022/05/09 13:26:38;;;;;;;4.10;1.50;;;;;;;17.50;31.35;100595.22;427336;1285;197304;-55
2022/05/09 13:36:50;;;;;;;2.10;1.30;;;;;;;17.23;31.49;100580.43;427334;1286;141165;-58
2022/05/09 13:46:58;;;;;;;3.10;1.30;;;;;;;17.48;31.56;100570.96;427482;1286;141515;-61
2022/05/09 13:57:17;;;;;;;2.80;1.30;;;;;;;17.55;31.10;100556.58;426711;1286;140816;-52
2022/05/09 14:07:41;;;;;;;2.70;1.40;;;;;;;17.54;31.39;100549.27;426771;1285;145236;-58
2022/05/09 14:17:53;;;;;;;6.90;1.00;;;;;;;17.25;31.45;100531.46;427725;1287;144659;-58
2022/05/09 14:38:30;;;;;;;1.60;1.00;;;;;;;17.27;30.80;100517.56;427258;1285;142367;-53
2022/05/09 14:48:42;;;;;;;2.10;1.20;;;;;;;17.25;30.69;100512.38;425897;1285;143070;-54
2022/05/09 14:59:01;;;;;;;3.00;0.60;;;;;;;17.31;30.72;100513.32;427608;1285;142006;-54
2022/05/09 15:09:07;;;;;;;4.30;0.80;;;;;;;17.34;30.43;100510.46;427433;1287;140641;-53
2022/05/09 15:19:13;;;;;;;1.80;0.90;;;;;;;17.34;30.19;100503.48;426727;1287;141007;-57
2022/05/09 15:29:20;;;;;;;3.80;1.40;;;;;;;17.43;30.26;100494.55;426934;1285;140999;-56
2022/05/09 15:39:25;;;;;;;2.70;1.20;;;;;;;17.44;30.10;100489.64;426042;1287;141253;-53
2022/05/09 15:49:33;;;;;;;1.80;1.00;;;;;;;17.42;30.01;100483.50;426512;1287;141447;-53
2022/05/09 15:59:39;;;;;;;2.40;1.50;;;;;;;17.23;29.63;100491.79;427081;1287;146029;-53
2022/05/09 16:20:14;;;;;;;8.30;1.30;;;;;;;16.85;29.69;100480.73;426201;1286;142261;-48
2022/05/09 16:30:23;;;;;;;4.40;1.10;;;;;;;16.62;29.95;100474.36;426226;1287;142951;-48
2022/05/09 16:40:36;;;;;;;5.30;1.30;;;;;;;16.41;30.15;100475.48;426563;1286;142295;-49
2022/05/09 16:50:42;;;;;;;3.20;1.00;;;;;;;16.25;30.24;100475.98;426509;1287;141830;-49
2022/05/09 17:00:48;;;;;;;4.00;1.80;;;;;;;16.14;30.19;100475.35;425639;1285;142787;-47
2022/05/09 17:10:55;;;;;;;3.80;1.40;;;;;;;15.98;29.79;100479.55;426742;1287;146787;-45
2022/05/09 17:21:00;;;;;;;4.80;1.30;;;;;;;15.76;29.68;100486.49;426154;1287;141586;-46
2022/05/09 17:31:06;;;;;;;1.00;0.90;;;;;;;15.53;29.37;100480.70;426585;1286;142006;-46
2022/05/09 17:41:16;;;;;;;5.10;1.10;;;;;;;15.23;29.35;100484.92;427333;1285;145996;-48
2022/05/09 17:51:21;;;;;;;4.70;1.50;;;;;;;14.96;29.73;100488.91;426641;1287;145381;-47
2022/05/09 18:01:33;;;;;;;3.50;1.60;;;;;;;14.69;30.17;100492.73;426642;1287;141334;-45
2022/05/09 18:11:44;;;;;;;6.10;1.60;;;;;;;14.43;30.76;100504.31;426970;1287;141566;-47
2022/05/09 18:21:51;;;;;;;3.70;1.20;;;;;;;14.19;31.50;100504.29;426867;1287;142209;-47
2022/05/09 18:31:58;;;;;;;4.90;2.10;;;;;;;13.92;32.49;100507.93;427298;1286;142003;-47
2022/05/09 18:42:11;;;;;;;3.40;1.80;;;;;;;13.61;33.21;100516.02;426657;1285;144543;-48
2022/05/09 18:52:37;;;;;;;3.90;1.90;;;;;;;13.29;33.75;100516.71;426765;1287;142790;-46
2022/05/09 19:02:43;;;;;;;6.40;2.00;;;;;;;12.99;33.99;100524.95;426502;1285;141128;-46
2022/05/09 19:12:51;;;;;;;3.50;1.80;;;;;;;12.68;34.27;100528.85;426530;1287;141256;-46
2022/05/09 19:22:57;;;;;;;1.70;1.10;;;;;;;12.43;34.61;100531.70;431048;1286;153133;-49
2022/05/09 19:33:04;;;;;;;7.20;1.80;;;;;;;12.27;34.95;100530.80;426048;1287;142234;-47
2022/05/09 19:43:16;;;;;;;3.60;1.70;;;;;;;12.09;35.16;100536.55;427433;1286;146647;-46
2022/05/09 20:03:46;;;;;;;4.00;2.30;;;;;;;11.79;35.88;100536.92;426337;1285;143954;-45
2022/05/09 20:13:52;;;;;;;2.40;1.80;;;;;;;11.61;36.31;100531.57;428108;1285;140729;-48
2022/05/09 20:23:59;;;;;;;4.70;1.90;;;;;;;11.43;36.66;100536.17;425955;1287;141537;-50
2022/05/09 20:34:05;;;;;;;2.50;1.90;;;;;;;11.24;37.16;100546.62;425921;1286;142316;-48
2022/05/09 20:44:16;;;;;;;7.50;2.20;;;;;;;11.14;37.19;100551.86;426681;1286;146530;-49
2022/05/09 20:54:24;;;;;;;6.00;1.90;;;;;;;10.99;37.40;100557.71;426055;1286;142148;-46
2022/05/09 21:04:30;;;;;;;3.40;1.70;;;;;;;10.88;37.54;100556.33;426999;1285;142349;-47
2022/05/09 21:14:36;;;;;;;2.50;1.70;;;;;;;10.79;37.55;100554.13;426597;1285;141180;-45
2022/05/09 21:24:42;;;;;;;6.10;2.70;;;;;;;10.68;37.54;100555.35;425775;1284;141074;-48
2022/05/09 21:34:48;;;;;;;2.40;2.10;;;;;;;10.57;37.68;100554.85;432974;1286;232491;-45
2022/05/09 21:44:54;;;;;;;4.40;1.80;;;;;;;10.51;37.78;100552.34;425888;1285;152363;-46
2022/05/09 21:55:01;;;;;;;6.40;2.40;;;;;;;10.45;38.17;100551.39;428665;1286;145715;-47
2022/05/09 22:05:10;;;;;;;5.60;2.10;;;;;;;10.35;38.45;100558.66;428195;1285;141668;-46
2022/05/09 22:15:16;;;;;;;7.50;3.20;;;;;;;10.27;38.90;100562.00;426058;1285;143382;-46
2022/05/09 22:25:22;;;;;;;4.90;2.60;;;;;;;10.12;39.39;100561.13;426906;1287;141548;-45
2022/05/09 22:35:28;;;;;;;6.40;3.10;;;;;;;9.91;39.85;100564.52;427622;1285;141421;-45
2022/05/09 22:45:35;;;;;;;7.70;2.90;;;;;;;9.75;40.28;100562.97;426891;1285;141775;-45
2022/05/09 22:55:41;;;;;;;5.90;2.90;;;;;;;9.50;40.58;100555.50;427180;1285;141537;-44
2022/05/09 23:05:46;;;;;;;3.80;2.50;;;;;;;9.43;40.95;100544.44;426368;1285;141323;-47
2022/05/09 23:15:53;;;;;;;9.30;3.30;;;;;;;9.36;41.08;100546.48;426784;1285;140772;-46
2022/05/09 23:25:59;;;;;;;5.20;2.50;;;;;;;9.29;41.26;100545.92;427488;1285;142342;-47
2022/05/09 23:36:07;;;;;;;3.90;2.50;;;;;;;9.16;41.71;100543.14;425828;1285;141727;-45
2022/05/09 23:46:13;;;;;;;9.50;3.00;;;;;;;9.01;42.02;100538.73;428193;1285;141033;-46
2022/05/09 23:56:21;;;;;;;5.90;2.30;;;;;;;8.80;42.32;100535.04;426949;1286;141533;-46
